createdAt,value
2017-11-03T00:04:50.207Z,14.40
2017-11-03T00:09:52.099Z,18.57
2017-11-03T00:14:54.002Z,18.97
2017-11-03T00:19:55.910Z,16.73
2017-11-03T00:24:57.834Z,18.53
2017-11-03T00:29:59.756Z,15.90
2017-11-03T00:35:01.660Z,15.80
2017-11-03T00:40:03.575Z,18.70
2017-11-03T00:45:05.546Z,18.43
2017-11-03T00:50:07.451Z,17.90
2017-11-03T00:55:09.349Z,16.70
2017-11-03T01:00:11.467Z,16.23
2017-11-03T01:05:13.708Z,16.20
2017-11-03T01:10:15.633Z,15.60
2017-11-03T01:15:17.575Z,16.00
2017-11-03T01:20:19.460Z,16.60
2017-11-03T01:25:21.443Z,16.90
2017-11-03T01:30:24.124Z,17.90
2017-11-03T01:35:26.031Z,19.53
2017-11-03T01:40:27.955Z,23.63
2017-11-03T01:45:29.912Z,24.70
2017-11-03T01:50:31.854Z,25.03
2017-11-03T01:55:33.782Z,25.23
2017-11-03T02:00:37.849Z,26.10
2017-11-03T02:05:40.574Z,26.60
2017-11-03T02:10:42.566Z,28.10
2017-11-03T02:15:45.214Z,28.10
2017-11-03T02:20:47.267Z,28.60
2017-11-03T02:25:49.327Z,30.90
2017-11-03T02:30:51.309Z,33.13
2017-11-03T02:35:54.355Z,30.90
2017-11-03T02:40:56.402Z,30.80
2017-11-03T02:45:58.434Z,32.77
2017-11-03T02:51:01.133Z,25.10
2017-11-03T02:56:03.036Z,22.80
2017-11-03T03:01:04.995Z,22.00
2017-11-03T03:06:06.899Z,22.37
2017-11-03T03:11:08.896Z,24.93
2017-11-03T03:16:10.843Z,23.30
2017-11-03T03:21:12.836Z,23.67
2017-11-03T03:26:14.817Z,36.07
2017-11-03T03:31:16.790Z,35.70
2017-11-03T03:36:19.460Z,37.83
2017-11-03T03:41:21.507Z,36.40
2017-11-03T03:46:23.490Z,40.00
2017-11-03T03:51:25.571Z,40.33
2017-11-03T03:56:27.595Z,41.83
2017-11-03T04:01:29.497Z,36.27
2017-11-03T04:06:31.774Z,39.70
2017-11-03T04:11:33.667Z,36.97
2017-11-03T04:16:35.563Z,31.60
2017-11-03T04:21:38.212Z,26.50
2017-11-03T04:26:40.182Z,28.30
2017-11-03T04:31:42.903Z,26.93
2017-11-03T04:36:45.666Z,27.37
2017-11-03T04:41:49.598Z,24.40
2017-11-03T04:46:51.735Z,25.47
2017-11-03T04:51:53.890Z,25.73
2017-11-03T04:56:56.595Z,26.07
2017-11-03T05:01:58.519Z,26.90
2017-11-03T05:07:01.188Z,26.00
2017-11-03T05:12:03.127Z,24.93
2017-11-03T05:17:05.036Z,27.60
2017-11-03T05:22:07.703Z,23.97
2017-11-03T05:27:09.627Z,25.23
2017-11-03T05:32:11.546Z,25.07
2017-11-03T05:37:13.599Z,26.73
2017-11-03T05:42:15.619Z,24.30
2017-11-03T05:47:17.569Z,22.70
2017-11-03T05:52:19.626Z,22.77
2017-11-03T05:57:21.603Z,23.40
2017-11-03T06:02:24.409Z,21.47
2017-11-03T06:07:27.996Z,22.77
2017-11-03T06:12:30.143Z,20.43
2017-11-03T06:17:32.072Z,24.20
2017-11-03T06:22:34.720Z,24.10
2017-11-03T06:27:36.648Z,24.63
2017-11-03T06:32:38.558Z,24.43
2017-11-03T06:37:45.328Z,24.13
2017-11-03T06:42:51.579Z,24.33
2017-11-03T06:47:53.809Z,24.10
2017-11-03T06:52:57.174Z,25.90
2017-11-03T06:57:59.991Z,25.83
2017-11-03T07:03:01.900Z,27.70
2017-11-03T07:08:04.699Z,29.50
2017-11-03T07:13:08.340Z,30.07
2017-11-03T07:18:10.457Z,31.07
2017-11-03T07:23:13.099Z,32.63
2017-11-03T07:28:16.379Z,32.07
2017-11-03T07:33:19.056Z,32.10
2017-11-03T07:38:21.838Z,31.87
2017-11-03T07:43:23.787Z,29.77
2017-11-03T07:48:25.764Z,28.37
2017-11-03T07:53:28.404Z,28.67
2017-11-03T07:58:31.140Z,26.40
2017-11-03T08:03:35.294Z,28.03
2017-11-03T08:08:37.315Z,28.70
2017-11-03T08:13:43.004Z,26.97
2017-11-03T08:18:45.524Z,26.40
2017-11-03T08:23:50.220Z,25.83
2017-11-03T08:28:53.637Z,23.07
2017-11-03T08:33:56.423Z,23.43
2017-11-03T08:38:59.091Z,23.20
2017-11-03T08:44:01.333Z,23.67
2017-11-03T08:49:03.545Z,22.60
2017-11-03T08:54:05.921Z,23.33
2017-11-03T08:59:12.592Z,19.80
2017-11-03T09:04:14.770Z,21.73
2017-11-03T09:09:17.035Z,21.63
2017-11-03T09:14:22.210Z,20.63
2017-11-03T09:19:28.022Z,20.23
2017-11-03T09:24:32.003Z,20.27
2017-11-03T09:29:34.000Z,22.30
2017-11-03T09:34:36.204Z,21.23
2017-11-03T09:39:38.203Z,21.33
2017-11-03T09:44:40.208Z,22.57
2017-11-03T09:49:42.188Z,19.63
2017-11-03T09:54:44.140Z,21.40
2017-11-03T09:59:46.622Z,19.87
2017-11-03T10:04:50.294Z,17.63
2017-11-03T10:09:52.374Z,15.20
2017-11-03T10:14:54.346Z,15.30
2017-11-03T10:19:57.067Z,14.53
2017-11-03T10:25:00.131Z,13.37
2017-11-03T10:30:02.110Z,14.53
2017-11-03T10:35:04.755Z,14.30
2017-11-03T10:40:06.677Z,18.03
2017-11-03T10:45:08.679Z,14.87
2017-11-03T10:50:10.670Z,13.97
2017-11-03T10:55:12.631Z,15.30
2017-11-03T11:00:14.684Z,16.70
2017-11-03T11:05:16.717Z,15.93
2017-11-03T11:10:18.732Z,14.57
2017-11-03T11:15:20.695Z,18.60
2017-11-03T11:20:22.736Z,17.67
2017-11-03T11:25:24.682Z,19.50
2017-11-03T11:30:27.778Z,18.07
2017-11-03T11:35:29.803Z,18.80
2017-11-03T11:40:33.479Z,17.90
2017-11-03T11:45:35.910Z,17.03
2017-11-03T11:50:38.184Z,17.60
2017-11-03T11:55:40.271Z,16.30
2017-11-03T12:00:43.030Z,16.17
2017-11-03T12:05:45.074Z,16.70
2017-11-03T12:10:47.143Z,15.67
2017-11-03T12:15:49.874Z,15.60
2017-11-03T12:20:53.673Z,16.00
2017-11-03T12:25:55.668Z,18.03
2017-11-03T12:30:58.812Z,17.03
2017-11-03T12:36:00.979Z,17.63
2017-11-03T12:41:05.303Z,17.87
2017-11-03T12:46:08.718Z,18.30
2017-11-03T12:51:12.562Z,17.60
2017-11-03T12:56:14.626Z,17.70
2017-11-03T13:01:20.103Z,16.10
2017-11-03T13:06:26.146Z,16.80
2017-11-03T13:11:29.067Z,16.63
2017-11-03T13:16:31.087Z,17.47
2017-11-03T13:21:33.844Z,18.13
2017-11-03T13:26:35.943Z,18.60
2017-11-03T13:31:37.992Z,17.33
2017-11-03T13:36:40.094Z,18.50
2017-11-03T13:41:42.084Z,17.10
2017-11-03T13:46:44.223Z,18.77
2017-11-03T13:51:46.288Z,20.30
2017-11-03T13:56:49.354Z,19.80
2017-11-03T14:01:51.435Z,22.73
2017-11-03T14:06:53.474Z,22.43
2017-11-03T14:11:56.112Z,23.40
2017-11-03T14:16:59.636Z,25.63
2017-11-03T14:22:02.328Z,26.43
2017-11-03T14:27:05.059Z,27.20
2017-11-03T14:32:07.659Z,25.13
2017-11-03T14:37:09.568Z,26.90
2017-11-03T14:42:11.899Z,28.00
2017-11-03T14:47:13.801Z,26.20
2017-11-03T14:52:15.751Z,26.90
2017-11-03T14:57:18.486Z,27.30
2017-11-03T15:02:20.524Z,27.33
2017-11-03T15:07:22.420Z,29.83
2017-11-03T15:12:24.336Z,27.83
2017-11-03T15:17:26.385Z,29.80
2017-11-03T15:22:29.097Z,28.70
2017-11-03T15:27:31.895Z,28.30
2017-11-03T15:32:37.704Z,27.90
2017-11-03T15:37:39.841Z,28.80
2017-11-03T15:42:41.869Z,28.60
2017-11-03T15:47:43.830Z,27.53
2017-11-03T15:52:45.826Z,29.30
2017-11-03T15:57:47.824Z,28.90
2017-11-03T16:02:49.893Z,28.50
2017-11-03T16:07:51.797Z,31.67
2017-11-03T16:12:54.215Z,29.40
2017-11-03T16:17:56.102Z,30.23
2017-11-03T16:22:58.034Z,28.90
2017-11-03T16:27:59.937Z,31.70
2017-11-03T16:33:02.366Z,30.73
2017-11-03T16:38:04.929Z,29.83
2017-11-03T16:43:08.686Z,30.53
2017-11-03T16:48:11.483Z,29.43
2017-11-03T16:53:14.211Z,33.03
2017-11-03T16:58:16.611Z,30.97
2017-11-03T17:03:19.912Z,28.27
2017-11-03T17:08:22.240Z,31.73
2017-11-03T17:13:24.907Z,29.23
2017-11-03T17:18:27.598Z,30.03
2017-11-03T17:23:30.656Z,30.87
2017-11-03T17:28:33.197Z,30.47
2017-11-03T17:33:35.888Z,32.10
2017-11-03T17:38:37.808Z,29.60
2017-11-03T17:43:39.743Z,30.80
2017-11-03T17:48:41.701Z,32.07
2017-11-03T17:53:43.927Z,31.60
2017-11-03T17:58:47.752Z,31.50
2017-11-03T18:03:51.564Z,29.50
2017-11-03T18:08:53.613Z,31.17
2017-11-03T18:13:55.628Z,31.50
2017-11-03T18:18:57.563Z,29.90
2017-11-03T18:23:59.552Z,29.90
2017-11-03T18:29:01.528Z,29.70
2017-11-03T18:34:04.787Z,29.57
2017-11-03T18:39:06.811Z,29.07
2017-11-03T18:44:13.633Z,29.47
2017-11-03T18:49:18.265Z,28.67
2017-11-03T18:54:20.773Z,29.10
2017-11-03T18:59:24.590Z,28.70
2017-11-03T19:04:26.742Z,28.80
2017-11-03T19:09:28.655Z,29.00
2017-11-03T19:14:30.547Z,29.63
2017-11-03T19:19:32.745Z,30.57
2017-11-03T19:24:34.723Z,29.80
2017-11-03T19:29:41.485Z,30.73
2017-11-03T19:34:43.651Z,30.43
2017-11-03T19:39:46.669Z,40.60
2017-11-03T19:44:48.715Z,46.13
2017-11-03T19:49:50.842Z,35.93
2017-11-03T19:54:53.456Z,45.20
2017-11-03T19:59:55.654Z,58.03
2017-11-03T20:05:00.291Z,32.03
2017-11-03T20:10:03.068Z,33.67
2017-11-03T20:15:05.029Z,32.63
2017-11-03T20:20:07.700Z,31.70
2017-11-03T20:25:10.107Z,32.87
2017-11-03T20:30:12.037Z,31.27
2017-11-03T20:35:13.985Z,32.60
2017-11-03T20:40:15.945Z,31.83
2017-11-03T20:45:17.932Z,31.07
2017-11-03T20:50:19.883Z,33.00
2017-11-03T20:55:21.858Z,35.07
2017-11-03T21:00:28.740Z,32.40
2017-11-03T21:05:32.002Z,34.33
2017-11-03T21:10:39.423Z,33.70
2017-11-03T21:15:45.683Z,35.17
2017-11-03T21:20:49.420Z,34.17
2017-11-03T21:25:52.480Z,34.53
2017-11-03T21:30:55.298Z,35.27
2017-11-03T21:36:02.016Z,34.83
2017-11-03T21:41:08.043Z,33.47
2017-11-03T21:46:13.122Z,34.63
2017-11-03T21:51:15.835Z,34.17
2017-11-03T21:56:19.441Z,31.63
2017-11-03T22:01:23.218Z,31.37
2017-11-03T22:06:30.633Z,32.03
2017-11-03T22:11:32.990Z,34.60
2017-11-03T22:16:40.015Z,32.83
2017-11-03T22:21:43.185Z,35.10
2017-11-03T22:26:49.306Z,34.30
2017-11-03T22:31:53.484Z,33.27
2017-11-03T22:36:55.475Z,34.53
2017-11-03T22:41:58.431Z,36.30
2017-11-03T22:47:03.783Z,35.27
2017-11-03T22:52:11.636Z,34.30
2017-11-03T22:57:15.976Z,32.87
2017-11-03T23:02:21.549Z,33.20
2017-11-03T23:07:25.624Z,35.07
2017-11-03T23:12:32.519Z,36.37
2017-11-03T23:17:39.506Z,36.17
2017-11-03T23:22:42.509Z,34.37
2017-11-03T23:27:46.507Z,36.57
2017-11-03T23:32:52.220Z,35.20
2017-11-03T23:38:00.135Z,34.43
2017-11-03T23:43:05.626Z,36.87
2017-11-03T23:48:14.203Z,31.30
2017-11-03T23:53:17.320Z,30.83
2017-11-03T23:58:25.154Z,31.80
